Time;durP1;ratioP1;P1;durP2;ratioP2;P2;SDS_P1;SDS_P2;PMS_P1;PMS_P2;Temp;Humidity;BMP_temperature;BMP_pressure;BME280_temperature;BME280_humidity;BME280_pressure;Samples;Min_cycle;Max_cycle;Signal;HPM_P1;HPM_P2
2022/12/14 00:00:55;;;;;;;17.70;9.67;;;;;;;-141.97;68.44;47849.69;5046838;28;20463;-84
2022/12/14 00:03:21;;;;;;;19.37;9.67;;;;;;;-141.97;67.66;47815.09;5042265;28;20158;-84
2022/12/14 00:05:46;;;;;;;21.60;9.83;;;;;;;-141.97;67.81;47853.53;5047840;28;20166;-84
2022/12/14 00:08:14;;;;;;;17.47;9.30;;;;;;;-141.97;67.71;47845.84;5054683;28;20177;-84
2022/12/14 00:10:40;;;;;;;17.50;8.93;;;;;;;-141.97;67.26;47853.53;5047680;28;20200;-85
2022/12/14 00:13:07;;;;;;;21.00;9.47;;;;;;;-141.97;67.14;47788.19;5043878;28;20785;-83
2022/12/14 00:15:33;;;;;;;21.27;9.80;;;;;;;-141.97;67.88;47717.06;5038339;28;20173;-83
2022/12/14 00:17:58;;;;;;;17.30;9.30;;;;;;;-141.97;67.50;47861.22;5022706;28;20433;-84
2022/12/14 00:20:26;;;;;;;19.77;9.40;;;;;;;-141.97;68.05;47849.69;5040480;28;20452;-84
2022/12/14 00:22:52;;;;;;;20.27;9.60;;;;;;;-141.97;68.00;47793.94;5051120;28;20229;-85
2022/12/14 00:25:17;;;;;;;19.83;9.60;;;;;;;-141.97;68.40;47759.34;5036077;28;20746;-84
2022/12/14 00:27:44;;;;;;;18.73;9.57;;;;;;;-141.97;68.73;47830.47;5043197;28;20174;-85
2022/12/14 00:30:15;;;;;;;15.83;7.70;;;;;;;-141.97;68.22;47849.69;5039295;28;20166;-84
2022/12/14 00:32:41;;;;;;;16.83;9.37;;;;;;;-141.97;68.67;47780.47;5035830;28;20703;-85
2022/12/14 00:35:12;;;;;;;18.47;9.43;;;;;;;-141.97;69.40;47855.44;5035846;28;20412;-85
2022/12/14 00:37:37;;;;;;;17.80;9.43;;;;;;;-141.97;68.76;47853.53;5017696;28;20222;-85
2022/12/14 00:40:04;;;;;;;19.00;9.50;;;;;;;-141.97;69.29;47792.03;5035118;28;20467;-86
2022/12/14 00:42:30;;;;;;;20.63;9.53;;;;;;;-141.97;69.39;47745.88;5035422;28;20198;-85
2022/12/14 00:44:55;;;;;;;25.67;10.17;;;;;;;-141.97;68.27;47757.41;5035072;28;20483;-85
2022/12/14 00:47:21;;;;;;;20.87;9.83;;;;;;;-141.97;68.02;47747.81;5034833;28;20158;-84
2022/12/14 00:49:46;;;;;;;20.33;10.53;;;;;;;-141.97;67.29;47763.19;5017155;28;20212;-85
2022/12/14 00:52:12;;;;;;;18.77;10.27;;;;;;;-141.97;67.06;47801.63;5034535;28;20677;-84
2022/12/14 00:54:37;;;;;;;19.07;9.60;;;;;;;-141.97;66.99;47834.31;5034436;28;20619;-86
2022/12/14 00:57:03;;;;;;;21.03;9.53;;;;;;;-141.97;66.39;47830.47;5019887;28;20206;-85
2022/12/14 00:59:28;;;;;;;19.30;9.83;;;;;;;-141.97;65.99;47830.47;5014653;28;20167;-85
2022/12/14 01:01:53;;;;;;;21.60;9.83;;;;;;;-141.97;66.45;47815.09;5013389;28;20209;-85
2022/12/14 01:04:21;;;;;;;18.13;9.07;;;;;;;-141.97;65.38;47803.56;5014400;28;20166;-87
2022/12/14 01:06:47;;;;;;;19.50;9.73;;;;;;;-141.97;64.65;47801.63;5014324;28;20159;-85
2022/12/14 01:09:13;;;;;;;19.00;9.53;;;;;;;-141.97;65.32;47786.25;5014222;28;20405;-86
2022/12/14 01:11:39;;;;;;;18.33;9.67;;;;;;;-141.97;64.73;47830.47;5014344;28;20928;-84
2022/12/14 01:14:05;;;;;;;19.17;9.50;;;;;;;-141.97;65.18;47805.47;5014181;28;20257;-85
2022/12/14 01:16:31;;;;;;;18.80;9.37;;;;;;;-141.97;64.63;47849.69;5014574;28;20194;-85
2022/12/14 01:18:58;;;;;;;18.77;10.03;;;;;;;-141.97;64.58;47866.97;5014109;28;20402;-85
2022/12/14 01:21:24;;;;;;;19.57;9.70;;;;;;;-141.97;65.17;47792.03;5014092;28;20251;-85
2022/12/14 01:23:52;;;;;;;17.33;8.73;;;;;;;-141.97;65.15;47893.91;5012848;28;20402;-86
2022/12/14 01:26:18;;;;;;;19.43;9.87;;;;;;;-141.97;65.09;47830.47;5013870;28;20436;-85
2022/12/14 01:28:45;;;;;;;22.47;10.27;;;;;;;-141.97;65.22;47715.13;5012488;28;20402;-85
2022/12/14 01:31:16;;;;;;;22.87;10.60;;;;;;;-141.97;65.58;47818.94;5013672;28;20410;-85
2022/12/14 01:33:43;;;;;;;23.13;10.70;;;;;;;-141.97;65.34;47903.50;5013526;28;20406;-85
2022/12/14 01:36:18;;;;;;;23.20;10.97;;;;;;;-141.97;65.85;47847.75;5013529;28;20477;-85
2022/12/14 01:38:44;;;;;;;24.33;10.97;;;;;;;-141.97;66.60;47805.47;5013688;28;20414;-85
2022/12/14 01:41:35;;;;;;;21.13;10.23;;;;;;;-141.97;65.83;47809.31;5013539;28;20980;-85
2022/12/14 01:44:21;;;;;;;23.13;10.80;;;;;;;-141.97;66.06;47811.25;4992065;28;20431;-85
2022/12/14 01:47:00;;;;;;;21.20;10.47;;;;;;;-141.97;66.09;47788.19;4991626;28;20934;-85
2022/12/14 01:49:38;;;;;;;23.00;11.30;;;;;;;-141.97;66.52;47801.63;4991763;28;20430;-85
2022/12/14 01:52:09;;;;;;;20.30;10.53;;;;;;;-141.97;65.64;47772.78;4991880;28;20410;-85
2022/12/14 01:54:38;;;;;;;23.47;10.73;;;;;;;-141.97;66.05;47807.41;4991920;28;20426;-85
2022/12/14 01:57:04;;;;;;;21.00;11.07;;;;;;;-141.97;66.15;47817.00;4991861;28;21033;-85
2022/12/14 01:59:33;;;;;;;21.67;10.30;;;;;;;-141.97;65.80;47811.25;4991389;28;20403;-85
2022/12/14 02:02:02;;;;;;;22.40;11.07;;;;;;;-141.97;65.26;47832.38;4991257;28;20213;-85
2022/12/14 02:04:29;;;;;;;21.57;11.63;;;;;;;-141.97;65.47;47792.03;5007773;28;20981;-85
2022/12/14 02:06:54;;;;;;;19.00;10.87;;;;;;;-141.97;65.54;47836.22;4991180;28;20422;-84
2022/12/14 02:09:25;;;;;;;20.87;10.20;;;;;;;-141.97;64.31;47842.00;4991575;28;20942;-85
2022/12/14 02:11:56;;;;;;;20.73;10.20;;;;;;;-141.97;64.89;47830.47;4991437;28;20175;-85
2022/12/14 02:14:22;;;;;;;21.00;10.90;;;;;;;-141.97;64.28;47830.47;4991328;28;20962;-85
2022/12/14 02:16:52;;;;;;;19.93;10.07;;;;;;;-141.97;64.29;47849.69;4991355;28;20454;-84
2022/12/14 02:19:17;;;;;;;19.83;10.30;;;;;;;-141.97;63.67;47813.16;4991733;28;20167;-84
2022/12/14 02:21:55;;;;;;;19.13;9.30;;;;;;;-141.97;64.16;47834.31;5009390;28;20803;-84
2022/12/14 02:24:33;;;;;;;17.63;9.13;;;;;;;-141.97;63.46;47811.25;5012955;28;20185;-85
2022/12/14 02:27:20;;;;;;;19.37;9.53;;;;;;;-141.97;63.42;47857.38;5011399;28;20417;-84
2022/12/14 02:30:09;;;;;;;20.33;9.53;;;;;;;-141.97;63.20;47813.16;5013205;28;20905;-84
2022/12/14 02:32:57;;;;;;;18.50;10.07;;;;;;;-141.97;63.09;47799.72;5028761;28;20418;-84
2022/12/14 02:35:55;;;;;;;19.20;10.13;;;;;;;-141.97;63.20;47840.06;5030686;28;20413;-85
2022/12/14 02:38:30;;;;;;;18.57;9.73;;;;;;;-141.97;63.47;47828.53;4957516;28;20463;-85
2022/12/14 02:41:01;;;;;;;25.17;10.10;;;;;;;-141.97;63.03;47820.84;4971430;28;20549;-84
2022/12/14 02:43:47;;;;;;;19.33;9.27;;;;;;;-141.97;63.98;47830.47;4971548;28;20419;-84
2022/12/14 02:46:30;;;;;;;19.90;9.50;;;;;;;-141.97;63.18;47851.59;4954940;28;20498;-85
2022/12/14 02:48:58;;;;;;;19.90;9.50;;;;;;;-141.97;63.57;47815.09;4971030;28;20423;-85
2022/12/14 02:51:43;;;;;;;18.43;9.93;;;;;;;-141.97;63.21;47818.94;4971127;28;20412;-85
2022/12/14 02:54:19;;;;;;;20.27;9.93;;;;;;;-141.97;63.40;47911.19;4971095;28;20399;-85
2022/12/14 02:56:53;;;;;;;22.03;10.03;;;;;;;-141.97;63.61;47830.47;4971107;28;20485;-85
2022/12/14 02:59:19;;;;;;;19.80;9.83;;;;;;;-141.97;63.50;47788.19;4971018;28;20403;-84
2022/12/14 03:01:47;;;;;;;23.77;10.03;;;;;;;-141.97;63.93;47818.94;4971454;28;20936;-84
2022/12/14 03:04:13;;;;;;;19.17;9.50;;;;;;;-141.97;64.08;47859.28;4970816;28;20506;-85
2022/12/14 03:06:58;;;;;;;20.40;9.80;;;;;;;-141.97;62.75;47861.22;4972048;28;20491;-84
2022/12/14 03:09:26;;;;;;;20.07;10.03;;;;;;;-141.97;63.91;47803.56;4970922;28;21062;-84
2022/12/14 03:11:57;;;;;;;20.77;9.87;;;;;;;-141.97;63.51;47832.38;4971031;28;20490;-84
2022/12/14 03:14:30;;;;;;;19.40;10.23;;;;;;;-141.97;63.51;47828.53;4975076;28;20407;-85
2022/12/14 03:17:02;;;;;;;18.57;10.07;;;;;;;-141.97;63.27;47838.16;5011985;28;20416;-84
2022/12/14 03:19:39;;;;;;;19.27;10.23;;;;;;;-141.97;64.10;47788.19;5026757;28;20792;-84
2022/12/14 03:22:10;;;;;;;19.80;10.70;;;;;;;-141.97;63.66;47945.81;5011628;28;20914;-84
2022/12/14 03:24:44;;;;;;;20.17;10.60;;;;;;;-141.97;63.33;47778.56;5011566;28;20402;-85
2022/12/14 03:27:19;;;;;;;20.83;9.70;;;;;;;-141.97;63.36;47849.69;5011889;28;20397;-84
2022/12/14 03:29:48;;;;;;;21.40;10.37;;;;;;;-141.97;64.07;47747.81;5010139;28;20513;-85
2022/12/14 03:32:20;;;;;;;20.30;10.13;;;;;;;-141.97;63.94;47834.31;5010595;28;20862;-84
2022/12/14 03:34:54;;;;;;;19.97;10.00;;;;;;;-141.97;63.99;47853.53;5011505;28;20416;-84
2022/12/14 03:37:38;;;;;;;18.43;8.93;;;;;;;-141.97;63.24;47753.56;5011659;28;20483;-85
2022/12/14 03:40:07;;;;;;;21.60;10.17;;;;;;;-141.97;63.64;47828.53;5011413;28;20460;-84
2022/12/14 03:42:41;;;;;;;20.00;9.70;;;;;;;-141.97;64.13;47799.72;5011523;28;20408;-85
2022/12/14 03:45:12;;;;;;;20.00;9.60;;;;;;;-141.97;63.71;47842.00;5011666;28;20406;-84
2022/12/14 03:48:08;;;;;;;18.97;9.57;;;;;;;-141.97;63.60;47815.09;5011569;28;20509;-85
2022/12/14 03:50:36;;;;;;;19.47;9.60;;;;;;;-141.97;62.54;47815.09;5046130;28;20861;-84
2022/12/14 03:53:10;;;;;;;17.27;9.30;;;;;;;-141.97;62.91;47845.84;5053919;28;20434;-85
2022/12/14 03:55:47;;;;;;;21.60;9.37;;;;;;;-141.97;63.70;47815.09;5056446;28;20515;-84
2022/12/14 03:58:45;;;;;;;17.53;9.67;;;;;;;-141.97;63.71;47797.78;5063553;28;20526;-84
2022/12/14 04:01:20;;;;;;;21.40;9.40;;;;;;;-141.97;63.84;47809.31;5060079;28;20446;-85
2022/12/14 04:04:07;;;;;;;22.13;10.10;;;;;;;-141.97;64.11;47742.03;5063082;28;20399;-85
2022/12/14 04:06:33;;;;;;;20.97;10.80;;;;;;;-141.97;63.83;47842.00;5077011;28;20454;-84
2022/12/14 04:09:36;;;;;;;17.63;9.27;;;;;;;-141.97;62.84;47832.38;5066962;28;20407;-85
2022/12/14 04:20:58;;;;;;;20.63;10.60;;;;;;;-141.97;64.31;47830.47;5056443;28;20462;-85
2022/12/14 04:26:21;;;;;;;19.93;10.10;;;;;;;-141.97;64.45;47909.28;5076564;28;20379;-85
2022/12/14 04:31:42;;;;;;;21.80;10.30;;;;;;;-141.97;64.38;47801.63;5060826;28;20411;-85
2022/12/14 04:34:11;;;;;;;19.40;10.23;;;;;;;-141.97;64.89;47815.09;5056981;28;20435;-85
2022/12/14 04:36:57;;;;;;;21.87;10.17;;;;;;;-141.97;64.85;47799.72;5056001;28;20467;-86
2022/12/14 04:39:46;;;;;;;22.53;9.93;;;;;;;-141.97;65.20;47843.91;5055921;28;20904;-86
2022/12/14 04:42:15;;;;;;;19.23;9.83;;;;;;;-141.97;65.21;47815.09;5054841;28;20415;-86
2022/12/14 04:44:55;;;;;;;21.90;10.33;;;;;;;-141.97;65.09;47838.16;5054802;28;20408;-84
2022/12/14 04:47:27;;;;;;;21.93;10.00;;;;;;;-141.97;65.26;47924.66;5055015;28;20465;-84
2022/12/14 04:50:00;;;;;;;26.80;13.43;;;;;;;-141.97;66.14;47830.47;5054403;28;20980;-86
2022/12/14 04:52:31;;;;;;;27.37;12.40;;;;;;;-141.97;67.00;47807.41;5054277;28;20963;-84
2022/12/14 04:55:15;;;;;;;32.47;12.50;;;;;;;-141.97;67.46;47797.78;5053887;28;20396;-84
2022/12/14 04:57:48;;;;;;;25.93;12.40;;;;;;;-141.97;68.51;47818.94;5054330;28;20404;-86
2022/12/14 05:00:15;;;;;;;23.63;10.70;;;;;;;-141.97;69.17;47788.19;5053963;28;20451;-84
2022/12/14 05:03:09;;;;;;;24.00;11.50;;;;;;;-141.97;69.52;47797.78;5036082;28;20941;-84
2022/12/14 05:06:01;;;;;;;28.93;10.53;;;;;;;-141.97;69.71;47782.41;5053854;28;20391;-87
2022/12/14 05:09:04;;;;;;;28.43;12.60;;;;;;;-141.97;70.34;47820.84;5054070;28;20408;-86
2022/12/14 05:11:43;;;;;;;23.07;11.07;;;;;;;-141.97;71.33;47813.16;4972779;28;20495;-85
2022/12/14 05:14:15;;;;;;;35.40;17.10;;;;;;;-141.97;71.36;47795.88;4972739;28;20840;-86
2022/12/14 05:16:40;;;;;;;26.33;11.33;;;;;;;-141.97;72.00;47855.44;4972815;28;20419;-84
2022/12/14 05:19:09;;;;;;;30.63;13.97;;;;;;;-141.97;72.38;47843.91;4972826;28;20411;-85
2022/12/14 05:21:47;;;;;;;59.90;21.83;;;;;;;-141.97;72.81;47736.28;4972602;28;20708;-85
2022/12/14 05:24:14;;;;;;;31.37;13.10;;;;;;;-141.97;73.13;47815.09;4956402;28;20570;-85
2022/12/14 05:26:39;;;;;;;25.23;12.13;;;;;;;-141.97;73.42;47768.94;4972817;28;20886;-85
2022/12/14 05:29:04;;;;;;;76.93;23.97;;;;;;;-141.97;73.59;47834.31;4972548;28;20477;-83
2022/12/14 05:31:30;;;;;;;35.87;15.03;;;;;;;-141.97;74.02;47838.16;4972557;28;20707;-85
2022/12/14 05:33:55;;;;;;;26.20;13.17;;;;;;;-141.97;74.60;47780.47;4972413;28;20266;-86
2022/12/14 05:36:21;;;;;;;33.20;14.17;;;;;;;-141.97;74.43;47868.91;4972706;28;20219;-87
2022/12/14 05:38:46;;;;;;;25.67;12.43;;;;;;;-141.97;73.77;47840.06;4972522;28;20250;-85
2022/12/14 05:41:12;;;;;;;26.40;11.83;;;;;;;-141.97;72.96;47801.63;4972352;28;20220;-85
2022/12/14 05:43:38;;;;;;;25.40;11.63;;;;;;;-141.97;73.10;47765.09;4943001;28;20660;-85
2022/12/14 05:46:04;;;;;;;25.67;11.67;;;;;;;-141.97;72.66;47830.47;4971350;28;20440;-86
2022/12/14 05:48:30;;;;;;;24.33;11.07;;;;;;;-141.97;72.67;47767.03;5026188;28;20198;-85
2022/12/14 05:51:10;;;;;;;48.97;23.57;;;;;;;-141.97;72.38;47817.00;5051331;28;20212;-85
2022/12/14 05:53:35;;;;;;;35.30;17.77;;;;;;;-141.97;72.38;47780.47;5044838;28;20493;-85
2022/12/14 05:56:01;;;;;;;32.97;17.67;;;;;;;-141.97;71.83;47805.47;5029729;28;20437;-85
2022/12/14 05:58:27;;;;;;;55.33;27.30;;;;;;;-141.97;72.21;47822.78;5030952;28;20182;-86
2022/12/14 06:00:53;;;;;;;39.53;19.57;;;;;;;-141.97;72.22;47818.94;5020860;28;20525;-85
2022/12/14 06:03:19;;;;;;;30.57;15.67;;;;;;;-141.97;71.63;47840.06;5010272;28;20465;-85
2022/12/14 06:05:44;;;;;;;28.53;14.70;;;;;;;-141.97;71.68;47845.84;5027080;28;20278;-85
2022/12/14 06:08:10;;;;;;;35.33;17.37;;;;;;;-141.97;71.77;47797.78;5013112;28;20936;-85
2022/12/14 06:10:35;;;;;;;32.47;14.97;;;;;;;-141.97;72.02;47807.41;5012770;28;20179;-86
2022/12/14 06:13:00;;;;;;;38.03;19.13;;;;;;;-141.97;71.83;47926.56;5012425;28;20221;-85
2022/12/14 06:15:27;;;;;;;34.47;16.47;;;;;;;-141.97;72.15;47818.94;5011713;28;20270;-85
2022/12/14 06:17:52;;;;;;;30.23;15.30;;;;;;;-141.97;72.25;47826.63;5013287;28;20193;-86
2022/12/14 06:20:18;;;;;;;33.37;15.37;;;;;;;-141.97;71.45;47843.91;5012453;28;20469;-87
2022/12/14 06:22:43;;;;;;;22.27;11.13;;;;;;;-141.97;70.19;47809.31;5013477;28;20655;-85
2022/12/14 06:25:08;;;;;;;26.63;12.17;;;;;;;-141.97;69.12;47840.06;5012755;28;20195;-85
2022/12/14 06:27:34;;;;;;;36.03;15.73;;;;;;;-141.97;69.37;47895.81;5022310;28;20225;-85
2022/12/14 06:30:00;;;;;;;28.23;12.77;;;;;;;-141.97;69.01;47830.47;5018840;28;20186;-85
2022/12/14 06:32:25;;;;;;;27.07;12.37;;;;;;;-141.97;68.58;47805.47;5015220;28;20599;-85
2022/12/14 06:34:51;;;;;;;37.23;17.67;;;;;;;-141.97;69.43;47782.41;5010832;28;20187;-85
2022/12/14 06:37:17;;;;;;;35.77;18.00;;;;;;;-141.97;69.41;47818.94;5030292;28;20221;-86
2022/12/14 06:39:42;;;;;;;24.57;12.67;;;;;;;-141.97;69.05;47865.06;5051770;28;20215;-86
2022/12/14 06:42:08;;;;;;;40.60;19.40;;;;;;;-141.97;68.75;47799.72;5033877;28;20722;-85
2022/12/14 06:44:34;;;;;;;34.73;16.00;;;;;;;-141.97;68.42;47801.63;5028130;28;20253;-85
2022/12/14 06:46:59;;;;;;;36.43;15.70;;;;;;;-141.97;68.05;47815.09;5031765;28;20658;-86
2022/12/14 06:49:24;;;;;;;33.50;15.23;;;;;;;-141.97;68.06;47757.41;5030095;28;20193;-85
2022/12/14 06:51:50;;;;;;;32.80;15.73;;;;;;;-141.97;68.87;47832.38;5014261;28;20193;-85
2022/12/14 06:54:17;;;;;;;31.87;14.53;;;;;;;-141.97;67.71;47828.53;5030892;28;20677;-85
2022/12/14 06:56:45;;;;;;;31.07;15.23;;;;;;;-141.97;67.84;47855.44;5013057;28;20869;-85
2022/12/14 06:59:12;;;;;;;32.10;15.13;;;;;;;-141.97;67.67;47832.38;5021640;28;20529;-84
2022/12/14 07:01:38;;;;;;;34.17;15.80;;;;;;;-141.97;68.01;47822.78;5010947;28;20564;-86
2022/12/14 07:04:05;;;;;;;35.67;16.97;;;;;;;-141.97;62.84;47815.09;5010711;28;20490;-87
2022/12/14 07:06:35;;;;;;;34.73;16.30;;;;;;;-141.97;61.22;47811.25;5010888;28;20430;-85
2022/12/14 07:09:01;;;;;;;30.13;15.67;;;;;;;-141.97;60.90;47863.13;5010526;28;20827;-85
2022/12/14 07:11:28;;;;;;;39.17;19.50;;;;;;;-141.97;60.38;47847.75;5011444;28;20447;-85
2022/12/14 07:13:55;;;;;;;47.93;25.03;;;;;;;-141.97;60.38;47855.44;5012917;28;20299;-85
2022/12/14 07:16:26;;;;;;;41.97;22.53;;;;;;;-141.97;58.33;47832.38;5031426;28;20436;-86
2022/12/14 07:18:53;;;;;;;35.83;19.20;;;;;;;-141.97;57.60;47799.72;5013836;28;20949;-85
2022/12/14 07:21:19;;;;;;;26.97;13.53;;;;;;;-141.97;55.15;47838.16;5030704;28;20976;-86
2022/12/14 07:23:46;;;;;;;36.77;16.73;;;;;;;-141.97;56.22;47803.56;5024580;28;20524;-85
2022/12/14 07:26:18;;;;;;;30.93;13.97;;;;;;;-141.97;53.97;47824.69;5010378;28;20437;-85
2022/12/14 07:28:46;;;;;;;27.70;14.87;;;;;;;-141.97;54.27;47778.56;5009348;28;20433;-85
2022/12/14 07:31:16;;;;;;;27.43;13.93;;;;;;;-141.97;53.45;47792.03;5010459;28;20440;-85
2022/12/14 07:33:41;;;;;;;24.27;12.07;;;;;;;-141.97;52.19;47795.88;5010119;28;20441;-85
2022/12/14 07:36:10;;;;;;;29.47;15.60;;;;;;;-141.97;53.88;47817.00;5008850;28;20492;-84
2022/12/14 07:38:37;;;;;;;26.87;13.27;;;;;;;-141.97;55.01;47817.00;5012699;28;20195;-85
2022/12/14 07:41:11;;;;;;;20.90;12.23;;;;;;;-141.97;54.50;47813.16;5004560;28;21016;-85
2022/12/14 07:43:38;;;;;;;26.20;12.13;;;;;;;-141.97;55.12;47899.66;5022041;28;21290;-86
2022/12/14 07:46:09;;;;;;;24.67;13.73;;;;;;;-141.97;55.45;47838.16;5003664;28;20526;-85
2022/12/14 07:48:34;;;;;;;30.20;14.53;;;;;;;-141.97;56.18;47757.41;5012476;28;20995;-86
2022/12/14 07:51:05;;;;;;;25.63;13.43;;;;;;;-141.97;55.45;47815.09;5010029;28;20437;-85
2022/12/14 07:53:31;;;;;;;24.63;12.70;;;;;;;-141.97;55.29;47828.53;5029884;28;20292;-86
2022/12/14 07:56:03;;;;;;;23.57;12.17;;;;;;;-141.97;54.93;47811.25;5019569;28;20468;-84
2022/12/14 07:58:29;;;;;;;25.17;12.50;;;;;;;-141.97;54.88;47868.91;5015167;28;20221;-83
2022/12/14 08:01:26;;;;;;;24.27;13.17;;;;;;;-141.97;54.92;47853.53;5028830;28;20472;-84
2022/12/14 08:04:11;;;;;;;24.43;12.03;;;;;;;-141.97;53.58;47878.53;5028436;28;20444;-86
2022/12/14 08:06:45;;;;;;;23.43;12.60;;;;;;;-141.97;53.65;47893.91;5012504;28;20443;-88
2022/12/14 08:09:11;;;;;;;26.33;12.87;;;;;;;-141.97;54.22;47776.63;5030976;28;20475;-87
2022/12/14 08:11:42;;;;;;;34.53;17.13;;;;;;;-141.97;54.05;47876.59;5033147;28;20449;-86
2022/12/14 08:14:18;;;;;;;25.67;12.67;;;;;;;-141.97;54.46;47836.22;5035478;28;20182;-86
2022/12/14 08:16:45;;;;;;;28.23;13.43;;;;;;;-141.97;53.88;47709.38;5012481;28;20528;-85
2022/12/14 08:19:11;;;;;;;26.50;12.60;;;;;;;-141.97;53.53;47818.94;5033960;28;20424;-84
2022/12/14 08:21:37;;;;;;;26.40;11.87;;;;;;;-141.97;53.55;47801.63;5036616;28;20460;-84
2022/12/14 08:24:03;;;;;;;23.10;11.83;;;;;;;-141.97;52.99;47866.97;5033768;28;20421;-84
2022/12/14 08:26:29;;;;;;;22.53;10.97;;;;;;;-141.97;52.30;47838.16;5033989;28;20435;-84
2022/12/14 08:28:55;;;;;;;22.50;10.83;;;;;;;-141.97;51.46;47790.09;5028101;28;20197;-85
2022/12/14 08:31:24;;;;;;;21.07;11.00;;;;;;;-141.97;51.39;47805.47;5028154;28;20201;-84
2022/12/14 08:33:50;;;;;;;19.63;10.57;;;;;;;-141.97;51.32;47838.16;5024880;28;20456;-85
2022/12/14 08:36:19;;;;;;;18.07;9.80;;;;;;;-141.97;51.08;47807.41;5022744;28;20469;-86
2022/12/14 08:38:44;;;;;;;17.17;9.63;;;;;;;-141.97;50.79;47807.41;5024036;28;21196;-84
2022/12/14 08:41:13;;;;;;;25.77;13.63;;;;;;;-141.97;50.86;47768.94;5015775;28;20504;-85
2022/12/14 08:43:40;;;;;;;20.83;11.63;;;;;;;-141.97;51.06;47793.94;5014958;28;20266;-85
2022/12/14 08:46:08;;;;;;;23.17;12.23;;;;;;;-141.97;50.73;47811.25;5004928;28;20495;-83
2022/12/14 08:48:33;;;;;;;18.43;10.50;;;;;;;-141.97;50.52;47899.66;5031692;28;20416;-84
2022/12/14 08:51:06;;;;;;;24.87;12.57;;;;;;;-141.97;50.42;47786.25;5017213;28;20598;-83
2022/12/14 08:53:32;;;;;;;24.63;12.30;;;;;;;-141.97;50.46;47807.41;5032596;28;20666;-83
2022/12/14 08:56:03;;;;;;;22.13;12.17;;;;;;;-141.97;50.58;47803.56;5060664;28;20923;-83
2022/12/14 08:58:29;;;;;;;23.37;12.17;;;;;;;-141.97;50.16;47797.78;5022215;28;20593;-83
2022/12/14 09:01:05;;;;;;;24.27;12.47;;;;;;;-141.97;50.11;47792.03;5028089;28;21079;-83
2022/12/14 09:03:31;;;;;;;20.73;10.40;;;;;;;-141.97;50.06;47792.03;5020594;28;20210;-85
2022/12/14 09:06:00;;;;;;;17.97;9.97;;;;;;;-141.97;50.15;47818.94;5040704;28;20427;-84
2022/12/14 09:08:25;;;;;;;19.67;10.20;;;;;;;-141.97;49.72;47807.41;5051687;28;20431;-84
2022/12/14 09:10:52;;;;;;;19.40;9.90;;;;;;;-141.97;48.38;47799.72;5031471;28;20452;-84
2022/12/14 09:13:18;;;;;;;21.83;11.10;;;;;;;-141.97;48.29;47807.41;5025978;28;20182;-86
2022/12/14 09:15:43;;;;;;;24.63;11.80;;;;;;;-141.97;48.14;47822.78;5014185;28;20448;-83
2022/12/14 09:18:09;;;;;;;21.10;11.20;;;;;;;-141.97;47.30;47801.63;5018148;28;20182;-85
2022/12/14 09:20:35;;;;;;;21.37;10.70;;;;;;;-141.97;47.87;47824.69;5012487;28;20206;-84
2022/12/14 09:23:00;;;;;;;20.83;11.37;;;;;;;-141.97;48.67;47792.03;5012520;28;20186;-84
2022/12/14 09:25:25;;;;;;;22.20;11.50;;;;;;;-141.97;49.01;47718.97;5012652;28;20623;-84
2022/12/14 09:27:51;;;;;;;22.20;11.50;;;;;;;-141.97;50.02;47803.56;5012828;28;20186;-85
2022/12/14 09:30:16;;;;;;;20.37;11.60;;;;;;;-141.97;48.21;47820.84;5012052;28;20274;-84
2022/12/14 09:32:45;;;;;;;23.37;12.37;;;;;;;-141.97;48.27;47832.38;5012572;28;20269;-84
2022/12/14 09:35:10;;;;;;;25.77;12.37;;;;;;;-141.97;47.16;47788.19;5012580;28;20265;-84
2022/12/14 09:37:36;;;;;;;26.10;14.10;;;;;;;-141.97;47.17;47759.34;5027257;28;20560;-84
2022/12/14 09:40:03;;;;;;;21.73;12.13;;;;;;;-141.97;47.96;47753.56;5011711;28;20229;-84
2022/12/14 09:42:55;;;;;;;22.40;12.40;;;;;;;-141.97;49.00;47822.78;5012410;28;20194;-83
2022/12/14 09:45:29;;;;;;;24.73;12.10;;;;;;;-141.97;48.47;47811.25;5011957;28;20671;-82
2022/12/14 09:48:16;;;;;;;21.73;11.37;;;;;;;-141.97;49.82;47815.09;5010729;28;20430;-83
2022/12/14 09:50:44;;;;;;;22.30;12.10;;;;;;;-141.97;49.19;47705.53;5025898;28;20186;-83
2022/12/14 09:53:13;;;;;;;25.43;12.37;;;;;;;-141.97;49.63;47811.25;5015673;28;20202;-85
2022/12/14 09:55:45;;;;;;;22.60;12.30;;;;;;;-141.97;49.16;47780.47;5051516;28;20489;-85
2022/12/14 09:58:23;;;;;;;22.37;11.63;;;;;;;-141.97;50.17;47772.78;5030666;28;20276;-84
2022/12/14 10:01:16;;;;;;;22.13;12.47;;;;;;;-141.97;50.10;47818.94;5030843;28;20201;-83
2022/12/14 10:04:10;;;;;;;28.30;12.77;;;;;;;-141.97;49.94;47822.78;5031806;28;20447;-84
2022/12/14 10:06:38;;;;;;;23.93;11.97;;;;;;;-141.97;49.99;47803.56;5031412;28;20425;-85
2022/12/14 10:09:22;;;;;;;21.20;11.50;;;;;;;-141.97;50.03;47818.94;5031210;28;20193;-85
2022/12/14 10:12:19;;;;;;;20.17;10.80;;;;;;;-141.97;49.57;47792.03;5031422;28;20186;-86
2022/12/14 10:15:09;;;;;;;17.30;9.63;;;;;;;-141.97;49.74;47799.72;4951808;29;20204;-85
2022/12/14 10:17:53;;;;;;;20.73;11.70;;;;;;;-141.97;49.48;47838.16;4957793;29;20215;-83
2022/12/14 10:20:40;;;;;;;19.33;10.80;;;;;;;-141.97;49.38;47795.88;4954427;29;20224;-83
2022/12/14 10:23:12;;;;;;;29.47;14.90;;;;;;;-141.97;48.82;47818.94;4953344;29;20273;-84
2022/12/14 10:25:39;;;;;;;27.87;13.63;;;;;;;-141.97;48.40;47838.16;4952420;29;20193;-84
2022/12/14 10:28:23;;;;;;;26.27;12.90;;;;;;;-141.97;47.87;47815.09;4934605;29;20188;-84
2022/12/14 10:30:56;;;;;;;20.27;11.70;;;;;;;-141.97;47.35;47807.41;4951117;29;20189;-84
2022/12/14 10:33:29;;;;;;;23.53;12.63;;;;;;;-141.97;47.63;47788.19;4951410;29;20196;-84
2022/12/14 10:35:57;;;;;;;20.13;11.17;;;;;;;-141.97;48.21;47784.34;4950710;29;20696;-85
2022/12/14 10:38:22;;;;;;;25.83;12.77;;;;;;;-141.97;46.79;47818.94;4951119;29;20200;-84
2022/12/14 10:40:51;;;;;;;19.63;11.80;;;;;;;-141.97;45.97;47795.88;4951258;29;20360;-84
2022/12/14 10:43:37;;;;;;;20.60;11.93;;;;;;;-141.97;44.97;47797.78;4951029;29;20193;-84
2022/12/14 10:46:21;;;;;;;21.07;11.50;;;;;;;-141.97;45.14;47809.31;4950869;29;20208;-84
2022/12/14 10:49:00;;;;;;;22.77;12.20;;;;;;;-141.97;46.39;47803.56;4946209;28;20972;-84
2022/12/14 10:51:33;;;;;;;25.43;11.57;;;;;;;-141.97;46.33;47784.34;4984430;28;20602;-85
2022/12/14 10:54:28;;;;;;;26.67;14.00;;;;;;;-141.97;45.78;47820.84;5022934;28;20181;-83
2022/12/14 10:56:54;;;;;;;20.10;12.10;;;;;;;-141.97;45.35;47828.53;5009887;28;20186;-83
2022/12/14 10:59:20;;;;;;;22.23;12.77;;;;;;;-141.97;44.42;47818.94;5023424;28;20239;-83
2022/12/14 11:01:48;;;;;;;22.77;12.27;;;;;;;-141.97;45.35;47790.09;5029418;28;20213;-82
2022/12/14 11:04:57;;;;;;;20.23;11.13;;;;;;;-141.97;45.45;47813.16;5029354;28;20178;-85
2022/12/14 11:07:25;;;;;;;19.50;10.90;;;;;;;-141.97;44.36;47786.25;4948419;28;20660;-83
2022/12/14 11:09:51;;;;;;;17.47;9.53;;;;;;;-141.97;44.25;47793.94;4948448;28;20199;-82
2022/12/14 11:12:25;;;;;;;17.77;10.27;;;;;;;-141.97;44.88;47807.41;4949484;29;20204;-82
2022/12/14 11:15:02;;;;;;;18.67;10.67;;;;;;;-141.97;45.63;47786.25;4950584;28;20657;-81
2022/12/14 11:17:33;;;;;;;19.70;10.93;;;;;;;-141.97;45.18;47795.88;4949550;29;20196;-81
2022/12/14 11:20:16;;;;;;;20.40;11.07;;;;;;;-141.97;46.50;47799.72;4948336;28;20291;-81
2022/12/14 11:22:57;;;;;;;22.70;11.77;;;;;;;-141.97;46.98;47822.78;4948641;29;20246;-81
2022/12/14 11:25:29;;;;;;;23.57;11.13;;;;;;;-141.97;47.08;47799.72;4948386;28;20192;-81
2022/12/14 11:27:57;;;;;;;23.27;11.83;;;;;;;-141.97;45.99;47780.47;4948714;28;20321;-82
2022/12/14 11:30:23;;;;;;;21.47;12.17;;;;;;;-141.97;46.19;47826.63;4948059;28;20255;-81
2022/12/14 11:32:50;;;;;;;20.97;11.30;;;;;;;-141.97;46.04;47903.50;4948047;28;20670;-83
2022/12/14 11:35:18;;;;;;;20.63;11.03;;;;;;;-141.97;45.64;47801.63;4948579;28;20184;-82
2022/12/14 11:37:47;;;;;;;18.07;10.77;;;;;;;-141.97;45.92;47824.69;4930158;29;20228;-81